Flight Briefing for CMB864

Departure Arrival
Bahrain International Airport (OBBI)
Click to view FAA NOTAMS
Ramstein Air Force Base (ETAR)
Click to view FAA NOTAMS
Departure Time Arrival Time
N/A N/A
Aircraft Distance
B757-200SF 2423nm
Departure METAR Arrival METAR
OBBI 230730Z 26007KT 240V300 CAVOK 38/08 Q1009 NOSIG ETAR 230657Z AUTO 00000KT 9999 CLR 11/08 A3013 RMK AO2 SLP207 T01080084 $
Suggested Route
RAMSI ITNAS UL602 TASMI L602 ALPET UM860 SRT G8 ULSAB UT334 INB L746 ODERO T86 MATEL WRN L744 ELRUR L602 KOMAN L852 DIRER REDBU KRH


View recent IFR Routes data
Notes
USTRANSCOM CONTRACT FLIGHT

Charts and Procedures

Charts for OBBI
No chart available
Charts for ETAR
No chart available

Windy.com Weather Map